createdAt,value
2023-04-10T00:02:00.624Z,11.80
2023-04-10T00:04:28.513Z,12.07
2023-04-10T00:06:55.626Z,12.57
2023-04-10T00:09:22.223Z,12.35
2023-04-10T00:11:48.845Z,12.05
2023-04-10T00:14:15.374Z,12.52
2023-04-10T00:16:42.006Z,12.00
2023-04-10T00:19:08.803Z,11.88
2023-04-10T00:21:35.348Z,12.90
2023-04-10T00:24:01.950Z,13.00
2023-04-10T00:26:28.502Z,13.00
2023-04-10T00:28:55.290Z,13.30
2023-04-10T00:31:21.981Z,12.25
2023-04-10T00:33:48.662Z,13.05
2023-04-10T00:36:16.003Z,12.90
2023-04-10T00:41:09.197Z,12.80
2023-04-10T00:43:35.893Z,10.50
2023-04-10T00:46:02.712Z,13.57
2023-04-10T00:48:29.694Z,13.23
2023-04-10T00:50:56.276Z,13.23
2023-04-10T00:53:23.185Z,12.25
2023-04-10T00:55:50.503Z,14.70
2023-04-10T01:00:43.764Z,11.57
2023-04-10T01:03:13.283Z,12.35
2023-04-10T01:05:51.624Z,12.95
2023-04-10T01:08:23.044Z,11.50
2023-04-10T01:11:02.577Z,11.73
2023-04-10T01:14:00.350Z,13.25
2023-04-10T01:16:31.570Z,13.73
2023-04-10T01:19:23.567Z,14.52
2023-04-10T01:21:52.833Z,14.98
2023-04-10T01:25:01.029Z,15.00
2023-04-10T01:27:33.511Z,15.25
2023-04-10T01:30:02.741Z,15.02
2023-04-10T01:32:30.906Z,14.85
2023-04-10T01:35:03.633Z,14.80
2023-04-10T01:37:32.170Z,13.90
2023-04-10T01:40:04.299Z,14.77
2023-04-10T01:42:34.178Z,14.52
2023-04-10T01:45:02.012Z,14.35
2023-04-10T01:47:29.114Z,15.18
2023-04-10T01:49:57.339Z,14.30
2023-04-10T01:52:25.001Z,14.80
2023-04-10T01:54:53.387Z,13.70
2023-04-10T01:57:20.468Z,14.40
2023-04-10T01:59:47.355Z,14.43
2023-04-10T02:02:14.053Z,14.10
2023-04-10T02:04:40.842Z,14.30
2023-04-10T02:07:12.279Z,16.83
2023-04-10T02:09:57.687Z,17.05
2023-04-10T02:12:36.944Z,16.38
2023-04-10T02:15:06.496Z,16.63
2023-04-10T02:17:34.854Z,16.42
2023-04-10T02:20:04.197Z,15.52
2023-04-10T02:22:31.086Z,15.27
2023-04-10T02:24:58.788Z,14.88
2023-04-10T02:27:29.585Z,14.63
2023-04-10T02:29:56.887Z,14.43
2023-04-10T02:32:24.268Z,15.35
2023-04-10T02:37:17.500Z,14.25
2023-04-10T02:39:44.088Z,14.70
2023-04-10T02:42:11.171Z,17.88
2023-04-10T02:44:39.465Z,16.30
2023-04-10T02:47:07.266Z,17.98
2023-04-10T02:49:35.069Z,19.60
2023-04-10T02:52:02.284Z,18.17
2023-04-10T02:54:28.955Z,18.25
2023-04-10T02:56:57.711Z,19.08
2023-04-10T02:59:24.387Z,20.52
2023-04-10T03:01:52.409Z,20.92
2023-04-10T03:04:19.629Z,19.77
2023-04-10T03:09:13.021Z,19.63
2023-04-10T03:11:39.616Z,19.52
2023-04-10T03:14:06.477Z,15.32
2023-04-10T03:16:33.136Z,19.50
2023-04-10T03:18:59.948Z,19.63
2023-04-10T03:21:27.447Z,37.80
2023-04-10T03:23:54.251Z,38.22
2023-04-10T03:26:21.263Z,56.05
2023-04-10T03:28:47.894Z,55.67
2023-04-10T03:31:14.520Z,42.70
2023-04-10T03:33:41.350Z,30.65
2023-04-10T03:36:08.714Z,21.77
2023-04-10T03:43:31.344Z,18.58
2023-04-10T03:45:58.217Z,37.13
2023-04-10T03:48:28.262Z,44.92
2023-04-10T03:50:55.530Z,31.60
2023-04-10T03:53:22.150Z,30.15
2023-04-10T03:55:48.675Z,23.08
2023-04-10T03:58:15.424Z,23.60
2023-04-10T04:00:42.046Z,22.85
2023-04-10T04:03:08.882Z,28.92
2023-04-10T04:05:35.746Z,43.10
2023-04-10T04:08:03.938Z,40.92
2023-04-10T04:10:30.564Z,43.58
2023-04-10T04:12:57.142Z,55.28
2023-04-10T04:15:23.995Z,46.13
2023-04-10T04:17:51.234Z,23.30
2023-04-10T04:20:17.906Z,22.58
2023-04-10T04:22:44.507Z,21.17
2023-04-10T04:25:11.783Z,21.58
2023-04-10T04:27:38.610Z,20.58
2023-04-10T04:30:06.465Z,15.32
2023-04-10T04:32:33.265Z,21.60
2023-04-10T04:34:59.932Z,21.05
2023-04-10T04:37:26.567Z,23.27
2023-04-10T04:39:53.115Z,33.93
2023-04-10T04:42:19.716Z,21.33
2023-04-10T04:44:46.348Z,20.37
2023-04-10T04:47:12.918Z,20.00
2023-04-10T04:49:39.499Z,21.47
2023-04-10T04:52:06.116Z,19.37
2023-04-10T04:54:32.688Z,24.92
2023-04-10T04:56:59.275Z,29.17
2023-04-10T04:59:25.872Z,30.85
2023-04-10T05:01:52.696Z,24.10
2023-04-10T05:04:20.709Z,28.33
2023-04-10T05:06:47.420Z,26.40
2023-04-10T05:09:13.981Z,22.83
2023-04-10T05:11:41.073Z,23.10
2023-04-10T05:14:07.715Z,22.50
2023-04-10T05:16:34.281Z,21.63
2023-04-10T05:19:00.854Z,19.95
2023-04-10T05:21:27.622Z,19.80
2023-04-10T05:23:54.263Z,19.65
2023-04-10T05:26:21.003Z,19.75
2023-04-10T05:28:47.660Z,18.70
2023-04-10T05:31:14.277Z,21.13
2023-04-10T05:33:40.989Z,21.02
2023-04-10T05:36:08.033Z,20.95
2023-04-10T05:38:34.623Z,20.15
2023-04-10T05:41:01.178Z,21.10
2023-04-10T05:43:27.807Z,22.00
2023-04-10T05:45:54.460Z,21.52
2023-04-10T05:48:21.183Z,21.92
2023-04-10T05:50:47.739Z,20.67
2023-04-10T05:53:14.932Z,20.10
2023-04-10T05:55:41.528Z,20.30
2023-04-10T05:58:08.106Z,24.20
2023-04-10T06:00:34.689Z,29.10
2023-04-10T06:03:01.712Z,24.17
2023-04-10T06:05:28.442Z,24.40
2023-04-10T06:07:57.575Z,24.17
2023-04-10T06:10:24.852Z,22.63
2023-04-10T06:12:51.405Z,22.43
2023-04-10T06:15:18.111Z,22.00
2023-04-10T06:17:44.794Z,20.92
2023-04-10T06:20:11.734Z,20.98
2023-04-10T06:22:38.351Z,20.48
2023-04-10T06:25:05.541Z,20.67
2023-04-10T06:27:33.892Z,17.23
2023-04-10T06:30:00.481Z,17.58
2023-04-10T06:32:27.096Z,17.20
2023-04-10T06:34:53.632Z,18.37
2023-04-10T06:37:20.216Z,19.13
2023-04-10T06:39:46.809Z,16.47
2023-04-10T06:42:13.412Z,16.57
2023-04-10T06:44:39.995Z,21.98
2023-04-10T06:47:06.937Z,14.55
2023-04-10T06:49:33.689Z,15.52
2023-04-10T06:52:00.287Z,15.65
2023-04-10T06:54:26.874Z,14.43
2023-04-10T06:56:58.714Z,15.07
2023-04-10T06:59:25.671Z,14.00
2023-04-10T07:01:52.262Z,13.90
2023-04-10T07:04:19.016Z,13.63
2023-04-10T07:06:45.628Z,10.20
2023-04-10T07:09:12.279Z,11.18
2023-04-10T07:11:38.893Z,8.38
2023-04-10T07:14:05.450Z,8.07
2023-04-10T07:16:32.766Z,6.53
2023-04-10T07:21:27.208Z,5.38
2023-04-10T07:23:53.891Z,5.93
2023-04-10T07:26:20.740Z,6.03
2023-04-10T07:28:47.332Z,6.43
2023-04-10T07:31:14.217Z,6.75
2023-04-10T07:33:40.952Z,6.13
2023-04-10T07:36:08.246Z,6.57
2023-04-10T07:38:34.883Z,6.90
2023-04-10T07:41:01.567Z,6.13
2023-04-10T07:43:28.096Z,6.90
2023-04-10T07:45:56.066Z,6.40
2023-04-10T07:48:22.908Z,6.97
2023-04-10T07:50:49.653Z,7.43
2023-04-10T07:53:16.286Z,7.35
2023-04-10T07:55:44.645Z,6.55
2023-04-10T07:58:11.305Z,6.63
2023-04-10T08:00:37.911Z,6.40
2023-04-10T08:03:05.977Z,5.40
2023-04-10T08:05:33.201Z,8.82
2023-04-10T08:07:59.998Z,6.38
2023-04-10T08:10:26.813Z,5.25
2023-04-10T08:12:53.642Z,5.40
2023-04-10T08:15:20.591Z,4.97
2023-04-10T08:17:47.489Z,6.55
2023-04-10T08:20:14.380Z,6.88
2023-04-10T08:22:41.240Z,5.60
2023-04-10T08:25:08.312Z,5.15
2023-04-10T08:27:35.101Z,5.45
2023-04-10T08:30:01.958Z,5.65
2023-04-10T08:32:29.354Z,5.22
2023-04-10T08:34:56.161Z,5.88
2023-04-10T08:37:22.792Z,6.70
2023-04-10T08:39:49.349Z,5.57
2023-04-10T08:42:16.100Z,5.95
2023-04-10T08:44:42.634Z,5.43
2023-04-10T08:47:10.377Z,6.17
2023-04-10T08:49:39.694Z,7.28
2023-04-10T08:52:09.677Z,6.80
2023-04-10T08:54:38.977Z,7.82
2023-04-10T08:57:09.763Z,8.02
2023-04-10T08:59:37.384Z,7.55
2023-04-10T09:02:04.022Z,8.80
2023-04-10T09:04:31.874Z,6.15
2023-04-10T09:06:58.455Z,6.40
2023-04-10T09:09:24.978Z,6.33
2023-04-10T09:12:00.478Z,6.20
2023-04-10T09:14:32.145Z,6.30
2023-04-10T09:17:24.192Z,6.38
2023-04-10T09:19:55.928Z,6.43
2023-04-10T09:22:31.074Z,6.13
2023-04-10T09:24:59.491Z,6.32
2023-04-10T09:27:35.178Z,6.20
2023-04-10T09:30:03.257Z,6.20
2023-04-10T09:32:36.062Z,6.05
2023-04-10T09:35:02.898Z,6.13
2023-04-10T09:37:33.115Z,6.28
2023-04-10T09:39:59.743Z,6.22
2023-04-10T09:42:37.327Z,6.65
2023-04-10T09:45:05.217Z,6.78
2023-04-10T09:47:33.263Z,6.03
2023-04-10T09:50:01.188Z,6.25
2023-04-10T09:52:29.883Z,6.28
2023-04-10T09:54:58.232Z,5.93
2023-04-10T09:57:27.697Z,6.22
2023-04-10T09:59:59.132Z,5.70
2023-04-10T10:02:28.854Z,5.70
2023-04-10T10:04:57.269Z,5.28
2023-04-10T10:07:24.388Z,5.93
2023-04-10T10:09:52.874Z,5.68
2023-04-10T10:12:24.344Z,5.70
2023-04-10T10:15:01.235Z,6.43
2023-04-10T10:17:38.393Z,5.78
2023-04-10T10:22:35.634Z,5.45
2023-04-10T10:25:03.268Z,6.40
2023-04-10T10:27:37.718Z,6.35
2023-04-10T10:30:20.289Z,6.88
2023-04-10T10:32:52.675Z,6.20
2023-04-10T10:35:19.981Z,6.55
2023-04-10T10:37:47.788Z,6.63
2023-04-10T10:40:31.066Z,6.20
2023-04-10T10:42:57.633Z,5.60
2023-04-10T10:45:31.358Z,5.85
2023-04-10T10:47:58.030Z,5.30
2023-04-10T10:50:24.990Z,5.85
2023-04-10T10:52:54.052Z,5.82
2023-04-10T10:55:27.501Z,5.72
2023-04-10T10:57:56.227Z,5.65
2023-04-10T11:00:27.166Z,5.85
2023-04-10T11:03:08.997Z,5.65
2023-04-10T11:05:55.601Z,5.60
2023-04-10T11:08:44.501Z,5.28
2023-04-10T11:11:13.005Z,5.50
2023-04-10T11:13:41.815Z,5.88
2023-04-10T11:16:12.896Z,5.30
2023-04-10T11:18:45.680Z,5.93
2023-04-10T11:21:16.760Z,5.60
2023-04-10T11:23:52.840Z,5.50
2023-04-10T11:26:43.624Z,5.90
2023-04-10T11:29:14.181Z,5.50
2023-04-10T11:31:40.857Z,5.72
2023-04-10T11:34:08.385Z,5.97
2023-04-10T11:36:39.051Z,5.45
2023-04-10T11:39:08.921Z,5.88
2023-04-10T11:41:40.140Z,8.13
2023-04-10T11:44:08.823Z,5.82
2023-04-10T11:46:40.433Z,5.75
2023-04-10T11:49:09.859Z,5.35
2023-04-10T11:51:40.815Z,5.75
2023-04-10T11:54:12.272Z,5.25
2023-04-10T11:56:41.142Z,5.40
2023-04-10T11:59:11.122Z,5.00
2023-04-10T12:01:39.850Z,5.20
2023-04-10T12:04:21.461Z,4.80
2023-04-10T12:06:53.399Z,5.70
2023-04-10T12:09:21.394Z,4.97
2023-04-10T12:11:59.823Z,6.53
2023-04-10T12:14:44.631Z,6.80
2023-04-10T12:17:12.970Z,5.20
2023-04-10T12:19:40.327Z,5.05
2023-04-10T12:22:07.798Z,5.30
2023-04-10T12:24:42.056Z,5.10
2023-04-10T12:27:19.130Z,5.20
2023-04-10T12:29:47.035Z,4.80
2023-04-10T12:32:13.854Z,4.93
2023-04-10T12:34:40.949Z,5.28
2023-04-10T12:37:09.776Z,4.82
2023-04-10T12:39:36.561Z,5.20
2023-04-10T12:42:13.401Z,4.68
2023-04-10T12:44:59.823Z,5.25
2023-04-10T12:47:28.345Z,5.88
2023-04-10T12:50:10.847Z,6.40
2023-04-10T12:52:40.440Z,5.30
2023-04-10T12:55:13.317Z,5.07
2023-04-10T12:57:41.468Z,4.90
2023-04-10T13:00:11.083Z,5.30
2023-04-10T13:02:38.600Z,4.85
2023-04-10T13:05:06.765Z,4.65
2023-04-10T13:07:33.541Z,4.90
2023-04-10T13:10:00.463Z,5.38
2023-04-10T13:12:27.218Z,5.07
2023-04-10T13:14:54.638Z,4.70
2023-04-10T13:19:48.786Z,4.78
2023-04-10T13:22:15.518Z,4.70
2023-04-10T13:24:43.597Z,4.78
2023-04-10T13:27:11.006Z,4.70
2023-04-10T13:32:07.530Z,5.45
2023-04-10T13:34:34.482Z,4.95
2023-04-10T13:37:01.672Z,4.97
2023-04-10T13:39:29.814Z,6.22
2023-04-10T13:41:56.838Z,5.63
2023-04-10T13:44:23.675Z,5.25
2023-04-10T13:46:52.025Z,6.53
2023-04-10T13:49:20.379Z,4.85
2023-04-10T13:51:47.462Z,4.10
2023-04-10T13:54:14.392Z,4.18
2023-04-10T13:56:41.398Z,4.10
2023-04-10T13:59:08.015Z,3.63
2023-04-10T14:01:34.681Z,4.10
2023-04-10T14:04:01.293Z,5.25
2023-04-10T14:06:28.286Z,4.78
2023-04-10T14:08:55.042Z,4.60
2023-04-10T14:11:22.073Z,3.90
2023-04-10T14:13:49.100Z,4.25
2023-04-10T14:16:15.615Z,4.47
2023-04-10T14:18:42.216Z,4.40
2023-04-10T14:21:08.851Z,4.47
2023-04-10T14:23:35.551Z,5.30
2023-04-10T14:26:02.269Z,4.18
2023-04-10T14:28:29.289Z,5.45
2023-04-10T14:30:55.972Z,4.30
2023-04-10T14:33:22.614Z,4.40
2023-04-10T14:35:49.272Z,4.60
2023-04-10T14:38:16.210Z,4.20
2023-04-10T14:40:43.680Z,4.22
2023-04-10T14:45:36.712Z,4.10
2023-04-10T14:48:03.667Z,4.30
2023-04-10T14:50:33.550Z,4.68
2023-04-10T14:53:00.697Z,4.47
2023-04-10T14:55:29.436Z,4.65
2023-04-10T14:57:58.222Z,4.55
2023-04-10T15:00:25.536Z,4.68
2023-04-10T15:02:52.321Z,4.55
2023-04-10T15:05:19.280Z,4.00
2023-04-10T15:07:45.929Z,3.70
2023-04-10T15:10:12.594Z,3.58
2023-04-10T15:12:39.367Z,3.70
2023-04-10T15:15:07.020Z,3.47
2023-04-10T15:17:33.973Z,3.25
2023-04-10T15:20:00.808Z,3.75
2023-04-10T15:22:29.247Z,3.83
2023-04-10T15:24:55.859Z,4.20
2023-04-10T15:27:22.449Z,4.57
2023-04-10T15:29:49.102Z,4.37
2023-04-10T15:32:15.791Z,4.18
2023-04-10T15:34:42.412Z,5.15
2023-04-10T15:37:08.958Z,4.80
2023-04-10T15:39:37.133Z,4.70
2023-04-10T15:42:06.041Z,5.07
2023-04-10T15:44:32.899Z,4.88
2023-04-10T15:46:59.479Z,5.45
2023-04-10T15:49:36.079Z,5.53
2023-04-10T15:52:05.119Z,6.53
2023-04-10T15:54:33.872Z,5.85
2023-04-10T15:57:01.749Z,6.20
2023-04-10T15:59:28.401Z,6.40
2023-04-10T16:01:55.067Z,6.77
2023-04-10T16:04:21.870Z,6.95
2023-04-10T16:06:48.557Z,7.03
2023-04-10T16:09:25.494Z,6.70
2023-04-10T16:11:53.914Z,6.45
2023-04-10T16:14:20.803Z,6.55
2023-04-10T16:16:47.395Z,6.88
2023-04-10T16:19:14.065Z,7.40
2023-04-10T16:21:40.714Z,6.57
2023-04-10T16:24:07.518Z,7.38
2023-04-10T16:26:34.336Z,6.82
2023-04-10T16:29:00.994Z,7.43
2023-04-10T16:31:27.639Z,7.40
2023-04-10T16:33:54.252Z,7.47
2023-04-10T16:36:20.921Z,7.43
2023-04-10T16:38:49.725Z,7.90
2023-04-10T16:41:20.866Z,7.53
2023-04-10T16:43:47.737Z,7.60
2023-04-10T16:46:14.478Z,7.40
2023-04-10T16:48:41.205Z,9.32
2023-04-10T16:51:15.903Z,7.63
2023-04-10T16:53:42.616Z,7.75
2023-04-10T16:56:09.312Z,7.45
2023-04-10T16:58:37.263Z,10.32
2023-04-10T17:01:26.334Z,8.25
2023-04-10T17:03:53.825Z,7.47
2023-04-10T17:08:47.571Z,7.53
2023-04-10T17:11:14.172Z,9.60
2023-04-10T17:13:41.517Z,7.57
2023-04-10T17:16:09.332Z,7.10
2023-04-10T17:18:35.933Z,6.68
2023-04-10T17:21:02.514Z,6.70
2023-04-10T17:23:29.683Z,7.53
2023-04-10T17:25:56.382Z,7.03
2023-04-10T17:28:23.114Z,7.57
2023-04-10T17:30:49.654Z,6.82
2023-04-10T17:33:16.278Z,7.60
2023-04-10T17:35:43.106Z,7.07
2023-04-10T17:38:09.617Z,6.45
2023-04-10T17:40:37.089Z,6.80
2023-04-10T17:43:03.936Z,6.97
2023-04-10T17:45:30.635Z,6.40
2023-04-10T17:47:57.325Z,6.72
2023-04-10T17:50:24.035Z,6.38
2023-04-10T17:52:50.542Z,6.10
2023-04-10T17:55:21.232Z,6.50
2023-04-10T17:57:48.921Z,6.53
2023-04-10T18:00:16.944Z,6.18
2023-04-10T18:02:45.544Z,5.25
2023-04-10T18:05:12.200Z,5.90
2023-04-10T18:07:39.227Z,5.33
2023-04-10T18:10:09.798Z,5.57
2023-04-10T18:12:37.715Z,4.50
2023-04-10T18:15:04.891Z,4.90
2023-04-10T18:17:31.602Z,5.20
2023-04-10T18:19:58.146Z,4.93
2023-04-10T18:22:24.961Z,4.90
2023-04-10T18:24:51.624Z,4.93
2023-04-10T18:27:18.164Z,5.15
2023-04-10T18:29:45.683Z,5.83
2023-04-10T18:32:12.642Z,6.10
2023-04-10T18:34:39.437Z,6.45
2023-04-10T18:37:07.492Z,5.78
2023-04-10T18:39:38.220Z,5.90
2023-04-10T18:42:07.514Z,6.32
2023-04-10T18:44:34.883Z,6.35
2023-04-10T18:47:04.879Z,6.50
2023-04-10T18:49:32.102Z,5.78
2023-04-10T18:51:58.924Z,6.57
2023-04-10T18:54:27.498Z,6.75
2023-04-10T18:56:54.398Z,5.93
2023-04-10T18:59:20.946Z,6.20
2023-04-10T19:01:47.572Z,5.97
2023-04-10T19:04:14.726Z,6.35
2023-04-10T19:06:43.656Z,7.85
2023-04-10T19:09:10.306Z,7.20
2023-04-10T19:11:37.064Z,6.82
2023-04-10T19:14:03.723Z,7.30
2023-04-10T19:16:30.534Z,7.10
2023-04-10T19:18:57.448Z,6.88
2023-04-10T19:21:24.281Z,7.78
2023-04-10T19:23:50.916Z,7.93
2023-04-10T19:26:19.951Z,7.78
2023-04-10T19:28:46.832Z,7.53
2023-04-10T19:31:13.603Z,7.47
2023-04-10T19:33:40.295Z,6.93
2023-04-10T19:36:08.510Z,6.72
2023-04-10T19:38:35.377Z,7.07
2023-04-10T19:41:01.903Z,6.60
2023-04-10T19:43:28.471Z,6.20
2023-04-10T19:45:56.246Z,6.47
2023-04-10T19:48:23.487Z,6.82
2023-04-10T19:50:50.092Z,7.07
2023-04-10T19:53:16.696Z,6.78
2023-04-10T19:55:44.431Z,7.45
2023-04-10T19:58:24.959Z,7.57
2023-04-10T20:01:06.816Z,7.85
2023-04-10T20:03:33.508Z,7.88
2023-04-10T20:06:00.767Z,8.27
2023-04-10T20:08:27.578Z,8.25
2023-04-10T20:10:55.161Z,8.70
2023-04-10T20:13:23.207Z,8.30
2023-04-10T20:15:50.109Z,9.47
2023-04-10T20:18:17.337Z,10.07
2023-04-10T20:20:44.825Z,9.98
2023-04-10T20:25:38.929Z,11.00
2023-04-10T20:28:05.490Z,11.48
2023-04-10T20:30:32.034Z,11.93
2023-04-10T20:32:58.679Z,11.20
2023-04-10T20:35:26.058Z,10.27
2023-04-10T20:37:52.611Z,10.38
2023-04-10T20:40:19.436Z,10.53
2023-04-10T20:42:46.291Z,10.02
2023-04-10T20:45:13.074Z,10.80
2023-04-10T20:47:39.984Z,10.55
2023-04-10T20:50:07.642Z,10.90
2023-04-10T20:52:34.227Z,10.60
2023-04-10T20:55:00.930Z,10.00
2023-04-10T20:57:27.625Z,10.13
2023-04-10T20:59:54.197Z,10.47
2023-04-10T21:02:21.999Z,9.90
2023-04-10T21:04:50.366Z,9.38
2023-04-10T21:07:16.930Z,9.18
2023-04-10T21:09:43.654Z,8.83
2023-04-10T21:12:10.219Z,8.40
2023-04-10T21:14:36.801Z,9.50
2023-04-10T21:17:03.430Z,7.10
2023-04-10T21:19:29.981Z,9.45
2023-04-10T21:21:57.282Z,9.10
2023-04-10T21:24:23.967Z,9.05
2023-04-10T21:26:50.756Z,8.73
2023-04-10T21:29:17.304Z,9.40
2023-04-10T21:31:43.922Z,8.93
2023-04-10T21:34:10.607Z,8.80
2023-04-10T21:36:38.750Z,7.63
2023-04-10T21:39:09.265Z,8.43
2023-04-10T21:41:37.075Z,7.93
2023-04-10T21:44:04.178Z,7.82
2023-04-10T21:46:31.093Z,8.45
2023-04-10T21:48:57.845Z,8.75
2023-04-10T21:51:26.736Z,8.48
2023-04-10T21:53:53.453Z,8.52
2023-04-10T21:56:20.694Z,8.77
2023-04-10T21:58:47.257Z,8.57
2023-04-10T22:01:13.921Z,9.33
2023-04-10T22:03:41.573Z,8.80
2023-04-10T22:06:09.080Z,8.45
2023-04-10T22:11:06.062Z,8.60
2023-04-10T22:13:32.921Z,8.27
2023-04-10T22:16:01.946Z,8.13
2023-04-10T22:18:28.908Z,8.30
2023-04-10T22:20:55.509Z,8.38
2023-04-10T22:23:22.250Z,8.50
2023-04-10T22:25:48.820Z,8.20
2023-04-10T22:28:15.775Z,8.35
2023-04-10T22:30:42.426Z,8.20
2023-04-10T22:33:11.891Z,8.52
2023-04-10T22:35:38.529Z,8.25
2023-04-10T22:38:05.278Z,8.60
2023-04-10T22:40:31.851Z,7.55
2023-04-10T22:42:58.448Z,8.87
2023-04-10T22:45:25.008Z,9.00
2023-04-10T22:47:51.569Z,8.13
2023-04-10T22:50:18.399Z,9.47
2023-04-10T22:52:44.989Z,10.02
2023-04-10T22:55:11.707Z,9.15
2023-04-10T22:57:38.424Z,10.13
2023-04-10T23:00:05.503Z,9.43
2023-04-10T23:02:32.128Z,9.85
2023-04-10T23:04:58.738Z,9.90
2023-04-10T23:07:27.808Z,9.90
2023-04-10T23:09:54.440Z,10.32
2023-04-10T23:12:21.009Z,9.90
2023-04-10T23:14:47.595Z,10.03
2023-04-10T23:17:14.148Z,10.05
2023-04-10T23:19:40.808Z,9.90
2023-04-10T23:22:07.328Z,9.95
2023-04-10T23:24:33.924Z,10.70
2023-04-10T23:27:00.574Z,10.60
2023-04-10T23:29:27.125Z,10.05
2023-04-10T23:31:53.649Z,10.70
2023-04-10T23:34:21.170Z,10.67
2023-04-10T23:36:47.701Z,10.65
2023-04-10T23:39:14.380Z,10.73
2023-04-10T23:41:41.061Z,10.80
2023-04-10T23:44:07.653Z,10.95
2023-04-10T23:46:34.291Z,10.70
2023-04-10T23:49:00.897Z,10.88
2023-04-10T23:51:28.053Z,11.18
2023-04-10T23:53:54.590Z,11.57
2023-04-10T23:56:21.649Z,11.23
2023-04-10T23:58:48.172Z,11.30
